createdAt,value
2019-05-05T00:01:14.696Z,17.23
2019-05-05T00:11:46.374Z,17.23
2019-05-05T00:17:06.296Z,16.23
2019-05-05T00:22:15.171Z,15.53
2019-05-05T00:27:21.799Z,16.10
2019-05-05T00:32:28.744Z,15.07
2019-05-05T00:37:35.394Z,16.00
2019-05-05T00:42:42.076Z,13.93
2019-05-05T00:53:00.567Z,16.43
2019-05-05T00:58:08.460Z,14.33
2019-05-05T01:03:16.032Z,14.77
2019-05-05T01:08:24.921Z,15.03
2019-05-05T01:18:36.704Z,13.50
2019-05-05T01:23:42.644Z,13.70
2019-05-05T01:28:48.599Z,15.93
2019-05-05T01:39:14.727Z,13.83
2019-05-05T01:44:21.023Z,14.50
2019-05-05T01:49:27.619Z,13.40
2019-05-05T01:54:35.308Z,14.47
2019-05-05T01:59:44.731Z,13.90
2019-05-05T02:04:50.776Z,14.67
2019-05-05T02:09:56.667Z,13.33
2019-05-05T02:15:04.230Z,13.73
2019-05-05T02:20:10.422Z,14.00
2019-05-05T02:25:16.391Z,15.53
2019-05-05T02:30:26.700Z,15.40
2019-05-05T02:35:31.659Z,15.53
2019-05-05T02:40:37.577Z,16.23
2019-05-05T02:50:57.501Z,15.80
2019-05-05T02:56:00.310Z,15.43
2019-05-05T03:06:23.874Z,16.97
2019-05-05T03:11:29.687Z,16.67
2019-05-05T03:16:35.664Z,17.70
2019-05-05T03:21:41.534Z,20.40
2019-05-05T03:26:47.700Z,20.53
2019-05-05T03:31:56.339Z,19.70
2019-05-05T03:37:01.282Z,19.23
2019-05-05T03:42:13.960Z,18.55
2019-05-05T03:47:20.039Z,20.90
2019-05-05T03:52:26.020Z,20.62
2019-05-05T03:57:33.809Z,22.17
2019-05-05T04:02:47.517Z,21.73
2019-05-05T04:07:54.534Z,21.17
2019-05-05T04:13:00.589Z,22.03
2019-05-05T04:18:10.857Z,21.17
2019-05-05T04:23:16.728Z,20.90
2019-05-05T04:28:24.090Z,21.73
2019-05-05T10:49:50.992Z,376.47
2019-05-05T10:54:57.938Z,745.10
2019-05-05T11:00:12.375Z,609.13
2019-05-05T11:05:12.993Z,545.97
2019-05-05T11:10:19.274Z,443.33
2019-05-05T11:15:25.380Z,351.33
2019-05-05T11:20:31.439Z,529.50
2019-05-05T11:25:37.918Z,262.07
2019-05-05T11:30:45.562Z,368.10
2019-05-05T11:41:00.280Z,99.50
2019-05-05T11:46:06.896Z,423.10
2019-05-05T11:56:20.367Z,516.63
2019-05-05T12:01:26.369Z,196.60
2019-05-05T12:06:33.985Z,207.17
2019-05-05T12:11:40.381Z,573.50
2019-05-05T12:16:47.557Z,260.00
2019-05-05T12:21:54.878Z,102.37
2019-05-05T12:32:25.011Z,34.87
2019-05-05T12:37:30.978Z,54.23
2019-05-05T12:42:36.870Z,20.75
2019-05-05T12:48:00.657Z,14.30
2019-05-05T12:53:06.628Z,383.93
2019-05-05T12:58:13.923Z,342.73
2019-05-05T13:03:19.902Z,440.85
2019-05-05T13:08:25.999Z,606.57
2019-05-05T13:13:34.330Z,264.47
2019-05-05T13:18:39.654Z,86.00
2019-05-05T13:23:48.600Z,30.53
2019-05-05T13:28:54.567Z,16.93
2019-05-05T13:34:01.474Z,11.77
2019-05-05T13:39:08.194Z,716.02
2019-05-05T13:44:16.202Z,337.33
2019-05-05T13:54:30.137Z,576.60
2019-05-05T13:59:36.366Z,767.42
2019-05-05T14:04:43.796Z,334.50
2019-05-05T14:09:50.362Z,704.63
2019-05-05T14:14:57.926Z,704.10
2019-05-05T14:20:09.461Z,575.53
2019-05-05T14:25:16.115Z,284.87
2019-05-05T14:35:50.131Z,418.67
2019-05-05T14:46:03.680Z,125.07
2019-05-05T14:51:09.832Z,299.57
2019-05-05T14:56:15.799Z,253.67
2019-05-05T15:11:58.701Z,120.20
2019-05-05T15:17:04.774Z,45.03
2019-05-05T15:22:19.046Z,22.40
2019-05-05T15:27:25.109Z,257.40
2019-05-05T15:37:38.042Z,407.95
2019-05-05T15:42:44.323Z,488.27
2019-05-05T15:47:51.146Z,215.80
2019-05-05T15:58:03.594Z,310.90
2019-05-05T16:03:09.879Z,355.93
2019-05-05T16:13:21.665Z,203.23
2019-05-05T16:18:38.538Z,184.83
2019-05-05T16:23:46.510Z,169.30
2019-05-05T16:28:55.014Z,220.87
2019-05-05T16:34:00.550Z,643.07
2019-05-05T16:39:07.198Z,673.90
2019-05-05T16:44:14.102Z,465.53
2019-05-05T16:49:21.140Z,225.60
2019-05-05T16:54:45.066Z,246.57
2019-05-05T17:04:56.850Z,382.97
2019-05-05T17:10:06.097Z,94.90
2019-05-05T17:15:10.452Z,29.00
2019-05-05T17:20:24.630Z,169.13
2019-05-05T17:25:30.777Z,421.43
2019-05-05T17:35:42.722Z,172.30
2019-05-05T17:40:48.674Z,203.50
2019-05-05T17:46:10.826Z,577.80
2019-05-05T17:51:16.896Z,384.95
2019-05-05T18:01:33.613Z,352.20
2019-05-05T18:06:46.794Z,499.13
2019-05-05T18:12:10.902Z,436.57
2019-05-05T18:17:17.200Z,784.47
2019-05-05T18:27:31.681Z,484.90
2019-05-05T18:32:40.202Z,401.77
2019-05-05T18:37:46.213Z,432.30
2019-05-05T18:48:00.165Z,382.73
2019-05-05T18:53:06.321Z,536.70
2019-05-05T18:58:12.830Z,646.70
2019-05-05T19:08:28.555Z,264.73
2019-05-05T19:18:48.259Z,248.97
2019-05-05T19:23:55.250Z,367.07
2019-05-05T19:29:04.401Z,437.07
2019-05-05T19:34:14.442Z,215.23
2019-05-05T19:39:20.765Z,266.83
2019-05-05T19:44:28.773Z,199.42
2019-05-05T19:49:35.203Z,294.93
2019-05-05T19:59:46.889Z,457.30
2019-05-05T20:04:53.659Z,322.33
2019-05-05T20:09:59.774Z,296.50
2019-05-05T20:15:07.465Z,352.53
2019-05-05T20:20:13.917Z,388.67
2019-05-05T20:25:20.434Z,373.35
2019-05-05T20:30:26.614Z,344.20
2019-05-05T20:35:33.812Z,565.73
2019-05-05T20:40:41.525Z,406.73
2019-05-05T20:45:47.629Z,256.97
2019-05-05T20:50:54.683Z,149.60
2019-05-05T20:56:00.790Z,109.67
2019-05-05T21:01:06.854Z,70.17
2019-05-05T21:06:13.865Z,53.10
2019-05-05T21:11:20.063Z,51.30
2019-05-05T21:16:26.576Z,41.10
2019-05-05T21:21:35.677Z,40.87
2019-05-05T21:26:55.484Z,42.30
2019-05-05T21:32:01.520Z,35.97
2019-05-05T21:37:07.481Z,35.70
2019-05-05T21:42:14.148Z,33.80
2019-05-05T21:47:20.345Z,31.52
2019-05-05T21:52:30.617Z,33.27
2019-05-05T21:57:41.095Z,30.70
2019-05-05T22:07:53.869Z,29.87
2019-05-05T22:13:00.012Z,28.80
2019-05-05T22:18:05.991Z,27.87
2019-05-05T22:23:11.906Z,26.07
2019-05-05T22:28:17.747Z,26.27
2019-05-05T22:33:24.684Z,26.00
2019-05-05T22:38:31.042Z,24.23
2019-05-05T22:43:37.037Z,24.93
2019-05-05T22:48:44.038Z,24.10
2019-05-05T22:53:50.078Z,25.70
2019-05-05T22:59:10.552Z,21.40
2019-05-05T23:04:24.411Z,22.00
2019-05-05T23:09:30.558Z,21.93
2019-05-05T23:14:36.355Z,21.87
2019-05-05T23:19:56.468Z,21.80
2019-05-05T23:25:04.232Z,20.03
2019-05-05T23:30:10.684Z,19.20
2019-05-05T23:35:16.633Z,19.13
2019-05-05T23:40:24.560Z,19.23
2019-05-05T23:45:30.521Z,18.97
2019-05-05T23:50:36.690Z,18.17
2019-05-05T23:55:44.082Z,18.47
